Time;durP1;ratioP1;P1;durP2;ratioP2;P2;SDS_P1;SDS_P2;PMS_P1;PMS_P2;Temp;Humidity;BMP_temperature;BMP_pressure;BME280_temperature;BME280_humidity;BME280_pressure;Samples;Min_cycle;Max_cycle;Signal;HPM_P1;HPM_P2
2021/11/09 00:01:26;;;;;;;12.15;5.50;;;;;;;6.82;100.00;101400.34;3608767;79;99371;-94
2021/11/09 00:06:30;;;;;;;12.23;5.87;;;;;;;6.75;100.00;101385.57;3628779;80;32452;-94
2021/11/09 00:11:31;;;;;;;10.97;5.87;;;;;;;6.74;100.00;101392.99;3652726;79;99166;-93
2021/11/09 00:16:33;;;;;;;17.42;7.03;;;;;;;6.69;100.00;101395.91;3658854;80;99086;-93
2021/11/09 00:21:34;;;;;;;13.48;6.67;;;;;;;6.76;100.00;101409.09;3646800;80;99262;-94
2021/11/09 00:26:35;;;;;;;16.63;6.33;;;;;;;6.73;100.00;101412.47;3647795;80;99349;-94
2021/11/09 00:31:37;;;;;;;12.43;6.28;;;;;;;6.68;100.00;101411.27;3639476;79;98909;-92
2021/11/09 00:36:39;;;;;;;13.88;7.08;;;;;;;6.68;100.00;101431.23;3621277;80;31798;-93
2021/11/09 00:41:41;;;;;;;13.43;6.75;;;;;;;6.62;100.00;101435.28;3640467;80;99108;-93
2021/11/09 00:46:44;;;;;;;15.63;7.65;;;;;;;6.54;100.00;101435.30;3666169;79;98733;-93
2021/11/09 00:51:46;;;;;;;22.43;11.37;;;;;;;6.53;100.00;101440.52;3607320;81;143806;-93
2021/11/09 00:56:47;;;;;;;16.47;7.77;;;;;;;6.52;100.00;101434.80;3591509;81;98464;-93
2021/11/09 01:01:49;;;;;;;16.30;7.28;;;;;;;6.53;100.00;101445.43;3579238;82;99365;-92
2021/11/09 01:06:53;;;;;;;17.45;7.90;;;;;;;6.46;100.00;101450.59;3568071;81;33221;-93
2021/11/09 01:11:55;;;;;;;19.02;8.03;;;;;;;6.46;100.00;101460.17;3590500;81;99038;-93
2021/11/09 01:16:57;;;;;;;15.18;8.23;;;;;;;6.46;100.00;101468.38;3609186;81;139051;-93
2021/11/09 01:22:01;;;;;;;16.77;8.28;;;;;;;6.44;100.00;101477.45;3667392;79;99520;-93
2021/11/09 01:27:03;;;;;;;17.52;7.35;;;;;;;6.41;100.00;101470.45;3634135;80;98960;-92
2021/11/09 01:32:05;;;;;;;15.43;6.37;;;;;;;6.41;100.00;101471.27;3595648;81;99271;-93
2021/11/09 01:37:07;;;;;;;15.53;7.42;;;;;;;6.42;100.00;101474.80;3655008;80;31412;-92
2021/11/09 01:42:09;;;;;;;16.30;7.33;;;;;;;6.40;100.00;101471.04;3524098;82;99052;-93
2021/11/09 01:47:11;;;;;;;14.60;7.70;;;;;;;6.39;100.00;101472.14;3594192;81;98748;-92
2021/11/09 01:52:12;;;;;;;14.60;7.97;;;;;;;6.43;100.00;101466.86;3589172;81;131405;-92
2021/11/09 01:57:13;;;;;;;16.25;7.75;;;;;;;6.41;100.00;101471.27;3517365;82;99611;-92
2021/11/09 02:02:15;;;;;;;16.65;7.53;;;;;;;6.36;100.00;101475.54;3513876;82;99388;-92
2021/11/09 02:07:17;;;;;;;18.52;8.10;;;;;;;6.33;100.00;101476.17;3520045;82;99306;-92
2021/11/09 02:12:19;;;;;;;15.70;7.30;;;;;;;6.31;100.00;101478.98;3576997;81;154422;-92
2021/11/09 02:17:20;;;;;;;14.85;8.03;;;;;;;6.31;100.00;101484.45;3581571;80;99398;-91
2021/11/09 02:22:22;;;;;;;15.45;6.80;;;;;;;6.26;100.00;101488.72;3608535;81;99260;-92
2021/11/09 02:27:23;;;;;;;14.63;7.40;;;;;;;6.20;100.00;101496.29;3624491;81;99292;-91
2021/11/09 02:32:25;;;;;;;16.57;8.18;;;;;;;6.16;100.00;101504.88;3613648;80;98981;-92
2021/11/09 02:37:27;;;;;;;25.52;11.93;;;;;;;6.12;100.00;101505.86;3536925;82;98937;-92
2021/11/09 02:42:35;;;;;;;32.55;15.38;;;;;;;6.11;100.00;101526.13;3523813;83;98680;-92
2021/11/09 02:48:06;;;;;;;18.50;9.40;;;;;;;6.04;100.00;101522.48;3548766;82;99428;-91
2021/11/09 02:53:11;;;;;;;19.95;10.25;;;;;;;5.95;100.00;101527.70;3483453;83;151469;-92
2021/11/09 03:03:29;;;;;;;17.25;8.78;;;;;;;5.92;100.00;101546.09;3550708;81;99588;-91
2021/11/09 03:08:30;;;;;;;19.20;8.98;;;;;;;5.90;100.00;101546.41;3529113;81;98965;-91
2021/11/09 03:13:27;;;;;;;18.52;9.70;;;;;;;5.90;100.00;101547.77;3547584;81;99305;-91
2021/11/09 03:18:31;;;;;;;18.55;8.93;;;;;;;5.87;100.00;101551.70;3666180;79;33075;-91
2021/11/09 03:49:46;;;;;;;43.13;20.25;;;;;;;5.49;100.00;101595.64;3572759;80;98968;-90
2021/11/09 03:54:52;;;;;;;30.02;14.85;;;;;;;5.53;100.00;101600.19;3526330;80;98789;-90
2021/11/09 04:05:07;;;;;;;21.77;11.20;;;;;;;5.45;100.00;101600.94;3561917;82;98820;-90
2021/11/09 04:10:27;;;;;;;21.77;11.55;;;;;;;5.48;100.00;101615.34;3586564;81;98977;-90
2021/11/09 04:52:29;;;;;;;24.27;11.67;;;;;;;5.24;100.00;101646.83;3444344;83;99093;-88
2021/11/09 05:02:47;;;;;;;19.32;10.18;;;;;;;5.09;100.00;101654.03;3474502;83;99118;-89
2021/11/09 05:13:05;;;;;;;22.73;10.50;;;;;;;5.10;100.00;101672.83;3490923;83;98568;-88
2021/11/09 05:18:06;;;;;;;22.07;11.53;;;;;;;5.11;100.00;101676.34;3496297;83;98807;-88
2021/11/09 05:23:07;;;;;;;22.90;11.97;;;;;;;5.06;100.00;101686.84;3488447;83;99215;-88
2021/11/09 05:28:09;;;;;;;19.27;11.13;;;;;;;5.09;100.00;101699.05;3501788;83;98878;-87
2021/11/09 05:33:12;;;;;;;19.70;10.95;;;;;;;5.16;100.00;101717.16;3498781;83;99038;-88
2021/11/09 05:38:14;;;;;;;25.30;13.87;;;;;;;5.15;100.00;101710.91;3506884;83;99085;-88
2021/11/09 05:43:15;;;;;;;30.12;14.55;;;;;;;5.22;100.00;101724.10;3493947;83;98799;-88
2021/11/09 05:48:16;;;;;;;26.50;12.18;;;;;;;5.25;100.00;101737.14;3471089;82;98896;-87
2021/11/09 05:53:17;;;;;;;24.00;12.07;;;;;;;5.27;100.00;101744.45;3480948;83;99073;-87
2021/11/09 05:58:18;;;;;;;32.57;16.23;;;;;;;5.24;100.00;101747.82;3508685;82;99020;-87
2021/11/09 06:03:23;;;;;;;27.35;12.70;;;;;;;5.24;100.00;101745.09;3559752;81;99044;-87
2021/11/09 06:08:22;;;;;;;22.13;12.43;;;;;;;5.19;100.00;101751.45;3518846;82;99119;-87
2021/11/09 06:13:23;;;;;;;21.97;11.27;;;;;;;5.23;100.00;101759.28;3519003;82;99072;-86
2021/11/09 06:18:31;;;;;;;25.47;12.47;;;;;;;5.20;100.00;101774.11;3559121;81;99264;-86
2021/11/09 06:23:36;;;;;;;21.65;11.78;;;;;;;5.23;100.00;101779.75;3535393;82;198150;-85
2021/11/09 06:28:40;;;;;;;22.62;11.35;;;;;;;5.19;100.00;101788.88;3553418;82;217869;-85
2021/11/09 06:33:40;;;;;;;20.70;12.57;;;;;;;5.20;100.00;101800.86;3531347;81;1494846;-85
2021/11/09 06:38:42;;;;;;;19.73;11.30;;;;;;;5.21;100.00;101804.38;3559866;81;160511;-85
2021/11/09 06:43:43;;;;;;;22.57;11.83;;;;;;;5.26;100.00;101807.81;3522401;81;99504;-85
2021/11/09 06:48:50;;;;;;;24.27;13.07;;;;;;;5.27;100.00;101812.15;3555298;81;115264;-85
2021/11/09 06:53:51;;;;;;;21.00;11.60;;;;;;;5.29;100.00;101815.94;3515560;81;2203714;-85
2021/11/09 06:58:52;;;;;;;23.32;12.60;;;;;;;5.36;100.00;101825.88;3539972;81;132809;-84
2021/11/09 07:03:55;;;;;;;22.93;13.17;;;;;;;5.39;100.00;101834.25;3538224;81;149240;-85
2021/11/09 07:08:57;;;;;;;22.70;12.43;;;;;;;5.42;100.00;101851.39;3553118;81;197870;-85
2021/11/09 07:13:57;;;;;;;28.03;13.93;;;;;;;5.47;100.00;101864.11;3546610;81;98911;-85
2021/11/09 07:19:03;;;;;;;26.53;14.37;;;;;;;5.52;100.00;101878.44;3561444;81;120455;-84
2021/11/09 07:24:05;;;;;;;34.20;15.30;;;;;;;5.63;100.00;101884.49;3540850;81;200371;-84
2021/11/09 07:29:08;;;;;;;30.30;17.40;;;;;;;5.70;100.00;101895.24;3479848;82;121418;-84
2021/11/09 07:34:08;;;;;;;35.33;17.98;;;;;;;5.77;100.00;101896.16;3431880;82;149805;-85
2021/11/09 07:39:09;;;;;;;32.40;17.47;;;;;;;5.82;100.00;101895.52;3445311;83;99595;-85
2021/11/09 07:44:10;;;;;;;37.23;20.60;;;;;;;5.91;100.00;101901.88;3492077;81;98712;-85
2021/11/09 07:49:11;;;;;;;31.73;19.47;;;;;;;6.04;100.00;101905.09;3508320;82;98734;-86
2021/11/09 07:54:12;;;;;;;32.77;18.50;;;;;;;6.16;100.00;101908.64;3502298;82;99433;-86
2021/11/09 07:59:24;;;;;;;35.43;19.70;;;;;;;6.24;100.00;101920.18;3507888;82;99031;-85
2021/11/09 08:04:23;;;;;;;31.67;18.20;;;;;;;6.34;100.00;101926.19;3445565;82;100001;-84
2021/11/09 08:09:22;;;;;;;32.30;18.93;;;;;;;6.44;100.00;101936.08;3472371;83;99155;-84
2021/11/09 08:14:23;;;;;;;30.53;18.30;;;;;;;6.57;100.00;101942.84;3521455;82;99008;-85
2021/11/09 08:19:24;;;;;;;36.20;19.00;;;;;;;6.67;100.00;101933.55;3524345;82;36619;-85
2021/11/09 08:24:27;;;;;;;34.23;19.23;;;;;;;6.75;100.00;101940.98;3526034;82;99349;-84
2021/11/09 08:29:28;;;;;;;32.60;18.20;;;;;;;6.89;100.00;101952.09;3535327;82;99081;-84
2021/11/09 08:34:37;;;;;;;32.17;18.70;;;;;;;6.98;100.00;101950.77;3510172;82;99001;-85
2021/11/09 08:39:39;;;;;;;38.48;18.23;;;;;;;7.07;100.00;101952.40;3531522;82;99028;-84
2021/11/09 08:44:49;;;;;;;29.70;18.23;;;;;;;7.19;100.00;101955.91;3528445;82;99031;-83
2021/11/09 08:49:45;;;;;;;34.30;20.87;;;;;;;7.30;100.00;101959.98;3530320;82;29345;-84
2021/11/09 08:54:59;;;;;;;40.47;21.20;;;;;;;7.42;100.00;101972.49;3516078;82;98750;-84
2021/11/09 09:05:14;;;;;;;30.90;16.97;;;;;;;7.63;100.00;101981.15;3526119;82;99101;-84
2021/11/09 09:10:15;;;;;;;32.20;17.53;;;;;;;7.69;100.00;101979.87;3522546;82;98930;-83
2021/11/09 09:15:17;;;;;;;30.32;18.70;;;;;;;7.82;100.00;101985.79;3530313;82;99175;-83
2021/11/09 09:20:26;;;;;;;30.55;17.50;;;;;;;7.96;100.00;101988.38;3530587;82;99006;-83
2021/11/09 09:56:54;;;;;;;38.92;22.07;;;;;;;8.49;100.00;102003.39;3528517;82;99106;-83
2021/11/09 10:02:12;;;;;;;39.30;23.70;;;;;;;8.43;100.00;102009.36;3528303;82;98800;-83
2021/11/09 10:07:17;;;;;;;40.60;24.40;;;;;;;8.36;100.00;102003.02;3514262;82;1752023;-84
2021/11/09 10:12:32;;;;;;;39.20;23.60;;;;;;;8.33;100.00;102002.83;3490698;82;99369;-83
2021/11/09 10:17:32;;;;;;;40.55;24.57;;;;;;;8.35;100.00;102012.35;3522901;82;99108;-82
2021/11/09 10:22:32;;;;;;;45.00;25.37;;;;;;;8.40;100.00;102012.77;3526171;82;99005;-83
2021/11/09 10:27:37;;;;;;;46.77;26.30;;;;;;;8.42;100.00;102013.24;3491949;82;99040;-83
2021/11/09 10:32:38;;;;;;;43.63;24.63;;;;;;;8.44;100.00;102009.59;3486852;82;99518;-83
2021/11/09 10:37:50;;;;;;;47.50;26.83;;;;;;;8.47;100.00;102005.67;3496271;83;30046;-82
2021/11/09 10:42:56;;;;;;;55.20;29.70;;;;;;;8.47;100.00;102011.16;3483355;83;101535;-83
2021/11/09 10:48:03;;;;;;;54.00;25.87;;;;;;;8.43;100.00;102012.11;3482180;83;99105;-83
2021/11/09 11:09:18;;;;;;;45.95;23.92;;;;;;;8.39;100.00;102016.66;3360171;85;99037;-83
2021/11/09 11:14:29;;;;;;;47.23;25.27;;;;;;;8.42;100.00;102022.84;3377108;85;99031;-83
2021/11/09 11:19:33;;;;;;;50.17;26.63;;;;;;;8.40;100.00;102014.14;3376917;85;30376;-83
2021/11/09 11:24:38;;;;;;;49.53;25.40;;;;;;;8.38;100.00;102018.58;3383357;85;99007;-84
2021/11/09 11:29:42;;;;;;;51.60;26.70;;;;;;;8.34;100.00;102022.30;3436206;84;98836;-83
2021/11/09 11:34:43;;;;;;;48.73;25.37;;;;;;;8.34;100.00;102021.72;3435497;85;99114;-83
2021/11/09 11:39:54;;;;;;;50.30;27.23;;;;;;;8.33;100.00;102030.27;3449322;84;99171;-83
2021/11/09 11:45:01;;;;;;;45.90;24.20;;;;;;;8.34;100.00;102034.64;3372552;86;99038;-82
2021/11/09 11:50:12;;;;;;;52.37;27.80;;;;;;;8.36;100.00;102033.19;3432094;83;27959;-84
2021/11/09 11:55:26;;;;;;;49.05;25.12;;;;;;;8.38;100.00;102037.78;3432701;84;98713;-82
2021/11/09 12:00:45;;;;;;;48.30;24.67;;;;;;;8.36;100.00;102034.56;3436032;84;98942;-84
2021/11/09 12:05:48;;;;;;;49.23;24.77;;;;;;;8.40;100.00;102036.87;3426637;84;98866;-83
2021/11/09 12:10:52;;;;;;;49.17;26.83;;;;;;;8.41;100.00;102033.58;3423159;83;1276334;-83
2021/11/09 12:16:02;;;;;;;51.67;27.57;;;;;;;8.43;100.00;102038.98;3427081;84;99491;-83
2021/11/09 12:21:24;;;;;;;43.73;23.42;;;;;;;8.47;100.00;102044.63;3422933;84;99439;-83
2021/11/09 12:26:57;;;;;;;49.57;26.60;;;;;;;8.53;100.00;102047.45;3412269;84;99283;-82
2021/11/09 12:32:20;;;;;;;46.25;23.77;;;;;;;8.59;100.00;102047.52;3318909;86;98710;-83
2021/11/09 12:37:21;;;;;;;44.17;24.00;;;;;;;8.64;100.00;102036.38;3380653;85;98981;-83
2021/11/09 12:42:22;;;;;;;45.98;23.65;;;;;;;8.71;100.00;102033.94;3387215;85;98964;-82
2021/11/09 12:47:23;;;;;;;46.87;24.57;;;;;;;8.72;100.00;102030.88;3411088;85;99083;-83
2021/11/09 12:52:23;;;;;;;49.03;25.95;;;;;;;8.76;100.00;102025.54;3322283;87;99064;-83
2021/11/09 12:57:25;;;;;;;46.50;26.80;;;;;;;8.80;100.00;102025.13;3388301;85;99129;-84
2021/11/09 13:02:29;;;;;;;46.27;25.30;;;;;;;8.83;100.00;102032.14;3383356;85;99148;-83
2021/11/09 13:07:39;;;;;;;54.60;28.97;;;;;;;8.90;100.00;102028.33;3392223;85;31655;-83
2021/11/09 13:12:41;;;;;;;50.48;26.15;;;;;;;8.91;100.00;102018.98;3391857;85;99300;-83
2021/11/09 13:17:58;;;;;;;46.97;24.87;;;;;;;8.94;100.00;102017.52;3336385;87;98953;-83
2021/11/09 13:23:04;;;;;;;51.60;27.40;;;;;;;8.97;100.00;102017.67;3380944;85;99109;-83
2021/11/09 13:28:17;;;;;;;54.00;29.27;;;;;;;9.00;100.00;102012.09;3439811;84;99087;-83
2021/11/09 13:33:23;;;;;;;51.58;27.07;;;;;;;9.03;100.00;102014.98;3439342;84;99102;-82
2021/11/09 13:38:37;;;;;;;48.83;27.13;;;;;;;9.01;100.00;102009.02;3396389;85;99036;-83
2021/11/09 13:43:47;;;;;;;52.07;28.97;;;;;;;9.06;100.00;102017.64;3409750;84;98748;-83
2021/11/09 13:48:59;;;;;;;49.57;27.30;;;;;;;9.04;100.00;102009.72;3432045;84;99019;-84
2021/11/09 13:54:08;;;;;;;64.07;35.58;;;;;;;9.06;100.00;102005.28;3421690;84;98995;-84
2021/11/09 13:59:11;;;;;;;64.15;34.25;;;;;;;9.06;100.00;102005.28;3411984;84;2623664;-83
2021/11/09 14:05:01;;;;;;;123.97;59.77;;;;;;;9.03;100.00;102003.99;3431618;84;99539;-83
2021/11/09 14:20:26;;;;;;;96.80;49.85;;;;;;;9.07;100.00;101997.27;3400813;85;33400;-83
2021/11/09 14:25:36;;;;;;;77.67;41.68;;;;;;;9.05;100.00;101996.22;3439017;84;98925;-84
2021/11/09 14:30:41;;;;;;;68.85;35.80;;;;;;;9.05;100.00;101993.48;3357416;85;4295325;-84
2021/11/09 14:35:42;;;;;;;75.30;38.55;;;;;;;9.04;100.00;101998.73;3398380;85;99449;-83
2021/11/09 14:40:56;;;;;;;61.53;34.33;;;;;;;9.03;100.00;101995.75;3400069;85;237308;-83
2021/11/09 14:46:14;;;;;;;62.20;33.13;;;;;;;9.03;100.00;102001.25;3385061;85;219249;-83
2021/11/09 14:51:45;;;;;;;54.47;28.97;;;;;;;9.04;100.00;101998.73;3399630;85;101130;-83
2021/11/09 14:56:35;;;;;;;108.05;43.02;;;;;;;9.05;100.00;101997.59;3365276;85;1499190;-83
2021/11/09 15:02:25;;;;;;;;;;;;;;;;;;;;;
2021/11/09 15:29:44;;;;;;;41.03;23.27;;;;;;;8.90;100.00;102000.08;3397813;84;81756;-85
2021/11/09 16:47:09;;;;;;;96.17;45.67;;;;;;;8.37;100.00;102016.97;3335962;84;29824;-85
2021/11/09 17:15:21;;;;;;;73.40;37.93;;;;;;;7.89;100.00;102025.86;3429298;82;98974;-85
2021/11/09 18:22:17;;;;;;;56.88;31.62;;;;;;;7.06;100.00;102064.41;3456951;83;98724;-84
2021/11/09 18:27:18;;;;;;;55.83;31.13;;;;;;;7.02;100.00;102062.59;3399206;85;98822;-84
2021/11/09 18:32:21;;;;;;;56.10;31.00;;;;;;;6.98;100.00;102064.36;3369781;85;98982;-84
2021/11/09 18:37:24;;;;;;;56.30;30.50;;;;;;;6.94;100.00;102068.28;3382004;85;99192;-85
2021/11/09 18:42:30;;;;;;;49.18;28.80;;;;;;;6.90;100.00;102066.47;3364750;85;99099;-84
2021/11/09 18:47:32;;;;;;;62.70;33.80;;;;;;;6.89;100.00;102071.70;3397723;85;99451;-84
2021/11/09 18:52:33;;;;;;;57.25;29.30;;;;;;;6.87;100.00;102065.73;3382251;85;99283;-85
2021/11/09 18:57:34;;;;;;;59.03;31.63;;;;;;;6.85;100.00;102070.16;3387074;85;98987;-84
2021/11/09 19:02:39;;;;;;;59.97;31.37;;;;;;;6.82;100.00;102073.50;3372430;85;99093;-85
2021/11/09 19:07:40;;;;;;;56.53;31.57;;;;;;;6.79;100.00;102064.56;3388630;85;99038;-85
2021/11/09 19:12:40;;;;;;;59.15;32.75;;;;;;;6.78;100.00;102067.60;3373911;85;99149;-84
2021/11/09 19:17:43;;;;;;;70.50;37.10;;;;;;;6.74;100.00;102070.16;3375507;85;99060;-85
2021/11/09 19:22:46;;;;;;;65.87;34.37;;;;;;;6.72;100.00;102066.11;3376854;85;98788;-85
2021/11/09 19:28:07;;;;;;;69.47;38.05;;;;;;;6.71;100.00;102061.77;3346889;85;2078660;-86
2021/11/09 19:33:23;;;;;;;73.93;40.13;;;;;;;6.65;100.00;102065.17;3352262;85;101424;-87
2021/11/09 19:44:48;;;;;;;65.17;36.80;;;;;;;6.61;100.00;102072.38;3390427;84;99730;-87
2021/11/09 19:49:49;;;;;;;66.03;37.07;;;;;;;6.58;100.00;102079.86;3437964;84;99079;-86
2021/11/09 19:55:51;;;;;;;67.67;37.10;;;;;;;6.58;100.00;102081.77;3421784;83;99275;-88
2021/11/09 20:00:51;;;;;;;64.10;36.08;;;;;;;6.55;100.00;102084.56;3311138;85;99020;-89
2021/11/09 20:05:55;;;;;;;70.40;37.75;;;;;;;6.53;100.00;102079.97;3355894;84;99096;-88
2021/11/09 20:10:57;;;;;;;89.10;41.77;;;;;;;6.51;100.00;102081.40;3313251;87;98768;-88
2021/11/09 20:16:01;;;;;;;93.43;43.73;;;;;;;6.49;100.00;102083.07;3305263;87;99309;-87
2021/11/09 20:21:01;;;;;;;80.50;38.93;;;;;;;6.47;100.00;102084.50;3249279;89;99156;-86
2021/11/09 20:26:06;;;;;;;108.77;46.80;;;;;;;6.45;100.00;102082.64;3304060;87;99385;-86
2021/11/09 20:31:06;;;;;;;134.93;52.93;;;;;;;6.42;100.00;102079.97;3254803;89;99309;-87
2021/11/09 20:36:09;;;;;;;97.07;44.03;;;;;;;6.40;100.00;102065.80;3264436;88;98589;-87
2021/11/09 20:41:15;;;;;;;81.53;40.03;;;;;;;6.37;100.00;102075.98;3410350;84;98948;-87
2021/11/09 20:46:16;;;;;;;65.17;34.53;;;;;;;6.33;100.00;102070.08;3268261;88;98863;-87
2021/11/09 20:51:20;;;;;;;69.93;35.17;;;;;;;6.30;100.00;102065.21;3328500;86;99137;-86
2021/11/09 20:56:21;;;;;;;64.43;35.13;;;;;;;6.28;100.00;102066.88;3332624;87;99098;-87
2021/11/09 21:01:22;;;;;;;60.57;31.93;;;;;;;6.23;100.00;102065.62;3354992;85;99519;-87
2021/11/09 21:06:23;;;;;;;57.37;30.93;;;;;;;6.19;100.00;102064.65;3373810;85;34873;-87
2021/11/09 21:11:24;;;;;;;58.10;31.77;;;;;;;6.15;100.00;102056.80;3366698;86;98799;-89
2021/11/09 21:21:44;;;;;;;58.95;30.27;;;;;;;6.10;100.00;102050.09;3365318;84;99007;-88
2021/11/09 21:26:44;;;;;;;55.70;31.17;;;;;;;6.06;100.00;102045.55;3370938;86;99252;-89
2021/11/09 21:37:04;;;;;;;58.80;30.67;;;;;;;5.97;100.00;102030.44;3371888;85;99044;-88
2021/11/09 21:42:05;;;;;;;66.03;33.30;;;;;;;5.94;100.00;102031.62;3367420;85;99114;-88
2021/11/09 21:47:08;;;;;;;63.87;32.13;;;;;;;5.91;100.00;102012.55;3370635;86;98915;-87
2021/11/09 21:52:09;;;;;;;56.30;32.33;;;;;;;5.86;100.00;102005.82;3368176;85;98962;-88
2021/11/09 21:57:10;;;;;;;50.27;29.03;;;;;;;5.82;100.00;101996.61;3367089;85;99029;-88
2021/11/09 22:02:10;;;;;;;57.57;30.43;;;;;;;5.80;100.00;101997.49;3362247;84;99163;-89
2021/11/09 22:07:11;;;;;;;55.13;30.77;;;;;;;5.77;100.00;101992.59;3367521;85;99490;-89
2021/11/09 22:12:12;;;;;;;62.73;36.48;;;;;;;5.76;100.00;101984.70;3365904;85;98782;-90
2021/11/09 22:17:13;;;;;;;67.90;40.77;;;;;;;5.74;100.00;101983.63;3375184;85;98872;-90
2021/11/09 22:22:13;;;;;;;61.58;37.60;;;;;;;5.70;100.00;101972.27;3358291;84;99344;-90
2021/11/09 22:27:14;;;;;;;72.10;41.90;;;;;;;5.68;100.00;101964.95;3369491;85;99012;-89
2021/11/09 22:32:15;;;;;;;69.72;42.25;;;;;;;5.60;100.00;101941.08;3364658;85;99486;-90
2021/11/09 22:37:16;;;;;;;72.57;44.43;;;;;;;5.56;100.00;101948.30;3367188;86;99499;-88
2021/11/09 22:42:17;;;;;;;81.47;47.33;;;;;;;5.52;100.00;101939.88;3362915;86;99325;-89
2021/11/09 22:47:18;;;;;;;57.27;33.90;;;;;;;5.47;100.00;101937.28;3372607;84;99520;-88
2021/11/09 22:52:18;;;;;;;46.80;25.80;;;;;;;5.46;100.00;101941.11;3373725;83;99388;-88
2021/11/09 22:57:19;;;;;;;49.37;25.87;;;;;;;5.44;100.00;101936.52;3368516;85;99094;-89
2021/11/09 23:02:20;;;;;;;46.53;25.23;;;;;;;5.43;100.00;101939.01;3388357;83;99448;-87
2021/11/09 23:07:21;;;;;;;51.33;29.12;;;;;;;5.41;100.00;101937.12;3402192;84;99050;-88
2021/11/09 23:12:22;;;;;;;45.10;25.60;;;;;;;5.36;100.00;101929.03;3398901;84;99055;-88
2021/11/09 23:17:22;;;;;;;53.80;29.43;;;;;;;5.32;100.00;101923.95;3407045;85;98917;-88
2021/11/09 23:22:23;;;;;;;53.27;29.77;;;;;;;5.32;100.00;101933.52;3399327;85;99430;-88
2021/11/09 23:27:24;;;;;;;53.30;30.03;;;;;;;5.26;100.00;101925.19;3407215;85;99429;-88
2021/11/09 23:32:25;;;;;;;49.67;26.53;;;;;;;5.23;100.00;101926.35;3396979;85;99545;-88
2021/11/09 23:37:26;;;;;;;53.37;28.90;;;;;;;5.17;100.00;101926.18;3396723;83;99533;-88
2021/11/09 23:42:27;;;;;;;67.90;35.47;;;;;;;5.11;100.00;101945.14;3398956;83;98802;-88
2021/11/09 23:47:29;;;;;;;71.53;35.47;;;;;;;5.10;100.00;101940.80;3406386;85;99147;-88
2021/11/09 23:52:30;;;;;;;55.50;29.57;;;;;;;5.08;100.00;101939.73;3369083;83;99147;-88
2021/11/09 23:57:30;;;;;;;52.33;26.40;;;;;;;5.06;100.00;101932.95;3398682;83;99100;-87
